Time;durP1;ratioP1;P1;durP2;ratioP2;P2;SDS_P1;SDS_P2;PMS_P1;PMS_P2;Temp;Humidity;BMP_temperature;BMP_pressure;BME280_temperature;BME280_humidity;BME280_pressure;Samples;Min_cycle;Max_cycle;Signal;HPM_P1;HPM_P2
2022/05/19 00:01:01;;;;;;;10.60;6.80;;;;;;;6.52;54.27;99736.33;220574;1270;22603;-69
2022/05/19 00:06:00;;;;;;;14.40;6.80;;;;;;;6.43;54.49;99738.02;220383;1272;25398;-67
2022/05/19 00:11:11;;;;;;;9.80;5.60;;;;;;;6.35;54.84;99738.15;219634;1271;401308;-68
2022/05/19 00:16:15;;;;;;;10.40;5.70;;;;;;;6.28;54.87;99736.93;219865;1271;24106;-69
2022/05/19 00:21:18;;;;;;;10.60;6.70;;;;;;;6.21;54.96;99736.91;219578;1271;23050;-68
2022/05/19 00:26:24;;;;;;;12.00;6.10;;;;;;;6.14;55.15;99736.77;219170;1271;26613;-69
2022/05/19 00:31:26;;;;;;;12.50;5.50;;;;;;;6.07;55.51;99733.39;219437;1271;23951;-70
2022/05/19 00:36:32;;;;;;;10.30;5.50;;;;;;;6.02;55.61;99730.72;219502;1271;22535;-69
2022/05/19 00:41:40;;;;;;;9.50;5.40;;;;;;;5.96;55.68;99729.69;220475;1271;22548;-68
2022/05/19 00:46:50;;;;;;;9.20;5.00;;;;;;;5.91;55.76;99727.23;219940;1271;26240;-70
2022/05/19 00:52:10;;;;;;;12.20;5.50;;;;;;;5.89;55.99;99729.84;220728;1271;22546;-68
2022/05/19 00:57:31;;;;;;;9.20;5.30;;;;;;;5.86;55.91;99731.69;219526;1271;25293;-69
2022/05/19 01:02:40;;;;;;;11.70;5.30;;;;;;;5.80;55.94;99731.83;219857;1270;24310;-69
2022/05/19 01:08:10;;;;;;;11.40;5.00;;;;;;;5.72;56.28;99733.65;220145;1271;25310;-68
2022/05/19 01:13:14;;;;;;;10.90;5.20;;;;;;;5.67;56.44;99737.66;220271;1271;24306;-69
2022/05/19 01:18:18;;;;;;;11.60;5.80;;;;;;;5.61;56.72;99737.11;220142;1271;25412;-68
2022/05/19 01:23:53;;;;;;;9.80;5.50;;;;;;;5.56;56.86;99734.25;219550;1270;22558;-68
2022/05/19 01:29:09;;;;;;;10.90;5.60;;;;;;;5.50;57.02;99726.52;219613;1272;22549;-68
2022/05/19 01:34:31;;;;;;;9.20;5.10;;;;;;;5.43;57.21;99719.72;220130;1271;24297;-69
2022/05/19 01:39:35;;;;;;;8.90;5.80;;;;;;;5.40;57.29;99717.08;219475;1271;25252;-69
2022/05/19 01:45:08;;;;;;;12.30;5.50;;;;;;;5.35;57.26;99721.69;219452;1270;25266;-69
2022/05/19 01:50:49;;;;;;;15.00;5.70;;;;;;;5.26;57.50;99723.08;220167;1271;22534;-69
2022/05/19 01:55:57;;;;;;;11.30;5.70;;;;;;;5.17;57.65;99709.54;219484;1270;22551;-69
2022/05/19 02:01:05;;;;;;;10.70;6.10;;;;;;;5.10;57.88;99707.02;219350;1270;24358;-70
2022/05/19 02:06:32;;;;;;;11.90;5.70;;;;;;;5.06;58.34;99702.06;220020;1270;22555;-69
2022/05/19 02:11:50;;;;;;;8.90;6.00;;;;;;;5.04;58.47;99706.02;220532;1271;22541;-69
2022/05/19 02:17:00;;;;;;;11.50;6.10;;;;;;;4.97;58.54;99706.89;221215;1270;24306;-69
2022/05/19 02:22:17;;;;;;;13.50;6.50;;;;;;;4.89;58.64;99708.53;219480;1270;22541;-68
2022/05/19 02:27:32;;;;;;;11.30;5.80;;;;;;;4.81;58.82;99702.27;219367;1271;24367;-69
2022/05/19 02:32:35;;;;;;;12.80;6.50;;;;;;;4.77;59.33;99706.02;219585;1271;22553;-69
2022/05/19 02:37:51;;;;;;;10.30;5.80;;;;;;;4.70;59.38;99707.59;219554;1270;25502;-69
2022/05/19 02:43:11;;;;;;;10.10;6.00;;;;;;;4.66;59.51;99705.24;220294;1270;22792;-68
2022/05/19 02:48:15;;;;;;;11.00;5.50;;;;;;;4.60;59.58;99705.11;220082;1271;23033;-68
2022/05/19 02:53:18;;;;;;;9.70;6.00;;;;;;;4.54;59.67;99706.66;219437;1270;22567;-68
2022/05/19 02:58:30;;;;;;;10.50;5.40;;;;;;;4.50;59.88;99708.52;220404;1270;22531;-67
2022/05/19 03:03:32;;;;;;;11.20;5.90;;;;;;;4.49;60.35;99707.69;219459;1270;22544;-67
2022/05/19 03:08:46;;;;;;;14.00;6.60;;;;;;;4.51;60.68;99711.98;220511;1270;25249;-69
2022/05/19 03:13:51;;;;;;;11.20;5.70;;;;;;;4.53;60.81;99711.13;219595;1270;22612;-69
2022/05/19 03:18:54;;;;;;;11.50;6.10;;;;;;;4.55;60.80;99703.43;219779;1270;24785;-67
2022/05/19 03:23:56;;;;;;;12.40;5.80;;;;;;;4.59;60.95;99702.72;219646;1270;22564;-69
2022/05/19 03:28:59;;;;;;;12.60;6.10;;;;;;;4.83;61.28;99703.61;219629;1271;22575;-69
2022/05/19 03:34:02;;;;;;;11.10;5.80;;;;;;;5.32;61.55;99702.80;219726;1270;24518;-70
2022/05/19 03:39:05;;;;;;;11.10;7.20;;;;;;;5.94;60.91;99703.30;219656;1270;24253;-68
2022/05/19 03:44:07;;;;;;;11.50;6.10;;;;;;;6.56;60.38;99703.98;219454;1270;22593;-70
2022/05/19 03:49:21;;;;;;;11.60;6.90;;;;;;;7.22;59.54;99701.33;219538;1270;24300;-69
2022/05/19 03:54:26;;;;;;;14.50;6.60;;;;;;;7.84;58.83;99701.84;219826;1270;23092;-69
2022/05/19 03:59:28;;;;;;;10.70;6.40;;;;;;;8.22;57.96;99705.92;219531;1270;24287;-70
2022/05/19 04:04:39;;;;;;;10.60;6.30;;;;;;;8.42;57.71;99706.95;219440;1270;24380;-69
2022/05/19 04:10:12;;;;;;;10.50;6.40;;;;;;;8.49;57.64;99702.08;220026;1270;22651;-69
2022/05/19 04:15:34;;;;;;;11.30;6.40;;;;;;;8.45;57.31;99708.91;219387;1270;22573;-69
2022/05/19 04:21:15;;;;;;;12.70;6.10;;;;;;;8.38;57.01;99712.98;219452;1270;22560;-68
2022/05/19 04:27:14;;;;;;;9.20;5.80;;;;;;;8.28;57.08;99710.80;220124;1270;22651;-69
2022/05/19 04:32:57;;;;;;;8.30;5.70;;;;;;;8.32;57.31;99705.13;219366;1270;22964;-69
2022/05/19 04:38:10;;;;;;;8.90;5.50;;;;;;;8.42;57.48;99704.11;219370;1270;25320;-69
2022/05/19 04:43:19;;;;;;;12.90;5.50;;;;;;;8.52;57.28;99709.05;220677;1271;22546;-69
2022/05/19 04:48:24;;;;;;;11.80;5.50;;;;;;;8.67;57.70;99709.35;221699;1270;25656;-69
2022/05/19 04:53:27;;;;;;;9.50;4.90;;;;;;;8.85;57.68;99708.30;219769;1270;24335;-69
2022/05/19 04:58:30;;;;;;;10.80;4.50;;;;;;;9.05;57.47;99708.95;219628;1270;22553;-69
2022/05/19 05:03:32;;;;;;;12.00;5.30;;;;;;;9.25;57.14;99712.88;219721;1270;24340;-69
2022/05/19 05:08:40;;;;;;;8.20;4.80;;;;;;;9.44;57.14;99710.72;219976;1271;22587;-69
2022/05/19 05:13:42;;;;;;;6.70;4.40;;;;;;;9.65;56.91;99717.48;220046;1271;22537;-70
2022/05/19 05:18:45;;;;;;;8.30;4.20;;;;;;;9.90;56.68;99717.50;219684;1271;23788;-70
2022/05/19 05:23:47;;;;;;;10.60;5.20;;;;;;;10.15;56.12;99714.24;219606;1270;22558;-70
2022/05/19 05:28:49;;;;;;;11.60;5.30;;;;;;;10.44;55.88;99716.01;221230;1270;22571;-69
2022/05/19 05:33:51;;;;;;;9.30;4.60;;;;;;;10.69;55.61;99720.84;219087;1270;22618;-71
2022/05/19 05:39:07;;;;;;;13.40;5.70;;;;;;;10.89;54.98;99717.33;219209;1270;22565;-69
2022/05/19 05:44:26;;;;;;;11.60;5.00;;;;;;;11.14;55.20;99717.60;219703;1270;24306;-70
2022/05/19 05:49:29;;;;;;;6.70;4.40;;;;;;;11.37;54.54;99719.35;219079;1270;23219;-70
2022/05/19 05:54:31;;;;;;;9.50;4.60;;;;;;;11.56;53.85;99717.88;219178;1270;24259;-70
2022/05/19 05:59:45;;;;;;;10.70;4.90;;;;;;;11.76;53.67;99715.73;219032;1270;22563;-70
2022/05/19 06:04:51;;;;;;;10.70;4.80;;;;;;;12.01;53.35;99715.90;225169;1270;24116;-70
2022/05/19 06:09:54;;;;;;;7.50;4.10;;;;;;;12.25;53.01;99716.81;219107;1269;22635;-67
2022/05/19 06:14:59;;;;;;;12.20;4.50;;;;;;;12.45;52.50;99711.88;219794;1270;22695;-69
2022/05/19 06:20:01;;;;;;;8.10;4.10;;;;;;;12.72;52.20;99711.34;219233;1270;23156;-69
2022/05/19 06:25:06;;;;;;;10.70;4.10;;;;;;;13.01;52.10;99710.04;219111;1269;24134;-69
2022/05/19 06:30:09;;;;;;;10.70;4.20;;;;;;;13.34;51.44;99710.09;219643;1270;22689;-70
2022/05/19 06:35:15;;;;;;;4.90;3.00;;;;;;;13.69;51.06;99716.27;222238;1270;24247;-70
2022/05/19 06:40:29;;;;;;;5.80;2.60;;;;;;;14.02;50.44;99717.09;220317;1270;22602;-68
2022/05/19 06:45:31;;;;;;;4.90;2.40;;;;;;;14.37;49.09;99720.14;219691;1270;22555;-69
2022/05/19 06:50:34;;;;;;;3.30;2.10;;;;;;;14.72;48.73;99723.45;219184;1270;22577;-69
2022/05/19 06:55:37;;;;;;;5.70;2.40;;;;;;;15.05;47.59;99722.84;219066;1270;25361;-69
2022/05/19 07:00:40;;;;;;;4.30;1.80;;;;;;;15.36;46.84;99722.77;219229;1270;24378;-69
2022/05/19 07:05:42;;;;;;;5.20;2.00;;;;;;;15.70;45.87;99714.34;219819;1270;22995;-69
2022/05/19 07:10:46;;;;;;;4.80;1.90;;;;;;;16.02;44.63;99706.98;218832;1270;25252;-69
2022/05/19 07:15:49;;;;;;;4.90;1.90;;;;;;;16.33;44.10;99704.73;218987;1270;25147;-70
2022/05/19 07:20:52;;;;;;;2.60;1.70;;;;;;;16.65;43.88;99698.67;219624;1270;22786;-69
2022/05/19 07:25:55;;;;;;;3.20;1.90;;;;;;;16.94;43.08;99691.05;219442;1270;22566;-70
2022/05/19 07:31:00;;;;;;;6.50;2.30;;;;;;;17.23;42.46;99691.67;219064;1270;23093;-69
2022/05/19 07:36:06;;;;;;;3.70;1.60;;;;;;;17.51;41.48;99688.17;219186;1270;22678;-70
2022/05/19 07:41:08;;;;;;;2.80;1.70;;;;;;;17.72;40.22;99694.30;221131;1272;23875;-70
2022/05/19 07:46:19;;;;;;;8.00;2.10;;;;;;;17.96;40.17;99696.08;219270;1270;22534;-69
2022/05/19 07:51:29;;;;;;;2.60;1.80;;;;;;;18.28;38.84;99693.58;219338;1270;22585;-70
2022/05/19 07:56:33;;;;;;;7.00;2.30;;;;;;;18.51;37.91;99688.51;219908;1270;23348;-70
2022/05/19 08:01:37;;;;;;;3.10;1.80;;;;;;;18.72;36.88;99691.30;220407;1270;22573;-70
2022/05/19 08:06:40;;;;;;;3.90;1.60;;;;;;;18.91;34.89;99688.73;219225;1269;25576;-70
2022/05/19 08:11:42;;;;;;;3.80;1.70;;;;;;;19.08;34.69;99683.58;220867;1270;25199;-70
2022/05/19 08:16:46;;;;;;;5.70;2.10;;;;;;;19.25;34.67;99684.72;221776;1270;26741;-69
2022/05/19 08:21:49;;;;;;;5.00;2.20;;;;;;;19.38;32.77;99684.59;219102;1270;25420;-70
2022/05/19 08:26:52;;;;;;;6.00;2.50;;;;;;;19.40;32.68;99687.20;219210;1270;25246;-69
2022/05/19 08:32:02;;;;;;;4.40;1.80;;;;;;;19.44;31.94;99691.73;219287;1270;22544;-69
2022/05/19 08:37:06;;;;;;;2.80;2.00;;;;;;;19.42;31.51;99691.50;223086;1270;25309;-69
2022/05/19 08:42:15;;;;;;;3.00;1.70;;;;;;;19.49;31.51;99688.73;221484;1270;24113;-70
2022/05/19 08:47:24;;;;;;;7.90;2.10;;;;;;;19.69;32.23;99685.90;219227;1270;25368;-70
2022/05/19 08:52:38;;;;;;;3.70;1.80;;;;;;;19.90;31.79;99686.53;221491;1270;22600;-71
2022/05/19 08:57:59;;;;;;;2.80;1.40;;;;;;;20.00;31.28;99683.56;219421;1270;22776;-69
2022/05/19 09:03:29;;;;;;;1.90;1.50;;;;;;;20.11;30.72;99678.55;222594;1270;22514;-70
2022/05/19 09:09:14;;;;;;;2.90;1.70;;;;;;;20.16;30.34;99676.03;221556;1270;22581;-70
2022/05/19 09:14:51;;;;;;;;;;;;;;;20.30;30.54;99676.55;221910;1270;22680;-70
2022/05/19 09:19:59;;;;;;;7.80;2.30;;;;;;;20.50;31.00;99680.83;221523;1270;22563;-69
2022/05/19 09:25:09;;;;;;;4.60;1.90;;;;;;;20.72;30.32;99677.05;222273;1270;23286;-70
2022/05/19 09:30:48;;;;;;;2.10;1.20;;;;;;;20.85;29.89;99669.37;221544;1270;22563;-69
2022/05/19 09:36:41;;;;;;;3.10;1.50;;;;;;;21.25;30.10;99665.34;219410;1270;22668;-71
2022/05/19 09:41:51;;;;;;;3.30;1.80;;;;;;;21.46;30.15;99653.33;222150;1270;25298;-69
2022/05/19 09:46:54;;;;;;;2.10;1.90;;;;;;;21.60;30.16;99646.66;223994;1269;22710;-70
2022/05/19 09:52:05;;;;;;;2.20;1.60;;;;;;;21.69;30.77;99643.36;222563;1270;22681;-70
2022/05/19 09:57:16;;;;;;;4.50;2.40;;;;;;;21.81;29.56;99638.43;221602;1270;25588;-69
2022/05/19 10:02:31;;;;;;;4.90;1.80;;;;;;;21.78;29.61;99636.54;221469;1270;22857;-70
2022/05/19 10:08:00;;;;;;;1.60;1.50;;;;;;;21.84;29.68;99626.28;219473;1270;22557;-69
2022/05/19 10:13:12;;;;;;;3.80;2.00;;;;;;;21.87;29.73;99618.26;219271;1269;22531;-69
2022/05/19 10:18:18;;;;;;;1.80;1.60;;;;;;;21.98;29.51;99614.23;221348;1270;23300;-70
2022/05/19 10:23:46;;;;;;;2.00;1.80;;;;;;;21.98;29.21;99610.33;221567;1270;22593;-71
2022/05/19 10:34:55;;;;;;;2.40;1.20;;;;;;;22.30;28.51;99616.63;221694;1270;22539;-70
2022/05/19 10:40:06;;;;;;;2.90;1.80;;;;;;;22.47;28.66;99617.27;221580;1270;22623;-70
2022/05/19 10:45:37;;;;;;;1.80;1.50;;;;;;;22.56;28.15;99611.60;221748;1270;23517;-71
2022/05/19 10:50:56;;;;;;;2.30;1.60;;;;;;;22.75;28.80;99604.52;222239;1270;24265;-71
2022/05/19 10:56:25;;;;;;;7.40;2.90;;;;;;;23.02;28.32;99597.58;221636;1270;25434;-71
2022/05/19 11:02:12;;;;;;;2.90;1.50;;;;;;;23.26;28.08;99589.35;221915;1270;25319;-71
2022/05/19 11:07:35;;;;;;;3.90;1.90;;;;;;;23.37;28.26;99584.16;221395;1270;22736;-70
2022/05/19 11:12:37;;;;;;;2.80;2.00;;;;;;;23.52;28.46;99575.18;221539;1270;22541;-71
2022/05/19 11:18:15;;;;;;;5.90;2.10;;;;;;;23.55;28.56;99566.98;221440;1270;22579;-71
2022/05/19 11:23:43;;;;;;;2.80;1.50;;;;;;;23.64;28.36;99557.02;222656;1270;22563;-70
2022/05/19 11:29:04;;;;;;;1.90;1.70;;;;;;;23.54;27.64;99552.45;221644;1270;23825;-70
2022/05/19 11:34:33;;;;;;;2.80;1.70;;;;;;;23.66;28.02;99546.92;221462;1269;23652;-70
2022/05/19 11:39:59;;;;;;;1.70;1.50;;;;;;;23.85;28.42;99532.38;221410;1270;22693;-70
2022/05/19 11:45:08;;;;;;;2.90;1.60;;;;;;;23.96;28.06;99530.44;221569;1270;22596;-72
2022/05/19 11:55:47;;;;;;;3.90;1.80;;;;;;;24.29;27.67;99510.83;221500;1270;24435;-69
2022/05/19 12:00:52;;;;;;;5.20;1.90;;;;;;;24.38;25.95;99513.56;226557;1269;24267;-70
2022/05/19 12:06:16;;;;;;;2.20;1.70;;;;;;;24.34;26.50;99498.63;219740;1270;24268;-70
2022/05/19 12:12:05;;;;;;;2.30;1.60;;;;;;;24.39;26.64;99502.16;219326;1270;387274;-69
2022/05/19 12:17:07;;;;;;;3.90;2.00;;;;;;;24.45;26.86;99498.20;219885;1270;22631;-70
2022/05/19 12:22:11;;;;;;;2.20;1.50;;;;;;;24.55;27.38;99490.39;219693;1270;22709;-69
2022/05/19 12:27:21;;;;;;;2.00;1.40;;;;;;;24.76;26.91;99489.67;224595;1270;22539;-70
2022/05/19 12:32:36;;;;;;;2.60;1.50;;;;;;;24.65;26.74;99484.17;219759;1270;26813;-70
2022/05/19 12:37:48;;;;;;;2.50;1.80;;;;;;;24.68;26.65;99480.23;222115;1270;24514;-72
2022/05/19 12:43:11;;;;;;;3.00;1.80;;;;;;;24.66;26.76;99476.44;221843;1270;25255;-69
2022/05/19 12:48:13;;;;;;;2.90;1.60;;;;;;;24.73;26.95;99473.97;221597;1270;23525;-69
2022/05/19 12:53:22;;;;;;;5.00;1.90;;;;;;;24.79;26.66;99471.64;221376;1270;22774;-70
2022/05/19 12:58:41;;;;;;;2.40;2.20;;;;;;;24.81;25.70;99466.17;221577;1270;24226;-69
2022/05/19 13:04:00;;;;;;;1.90;1.80;;;;;;;24.69;25.37;99456.52;221579;1270;22548;-71
2022/05/19 13:09:10;;;;;;;3.70;1.80;;;;;;;24.68;25.83;99457.12;221706;1270;23028;-71
2022/05/19 13:14:56;;;;;;;3.40;2.20;;;;;;;24.71;25.67;99454.76;221233;1270;22552;-71
2022/05/19 13:20:04;;;;;;;5.00;1.70;;;;;;;24.72;25.45;99444.45;221472;1270;22550;-72
2022/05/19 13:25:49;;;;;;;1.60;1.50;;;;;;;24.85;26.01;99430.00;221608;1270;25256;-72
2022/05/19 13:31:29;;;;;;;2.70;2.00;;;;;;;24.96;26.27;99420.77;221514;1270;22554;-72
2022/05/19 13:36:35;;;;;;;2.90;1.70;;;;;;;25.21;25.82;99420.23;221189;1270;22679;-70
2022/05/19 13:42:07;;;;;;;2.60;2.00;;;;;;;25.40;25.85;99417.30;221467;1270;25509;-71
2022/05/19 13:47:42;;;;;;;4.00;2.90;;;;;;;25.48;25.16;99415.13;221387;1270;24168;-71
2022/05/19 13:52:51;;;;;;;1.90;1.60;;;;;;;25.41;24.93;99410.11;221505;1270;22563;-71
2022/05/19 13:57:54;;;;;;;1.60;1.50;;;;;;;25.43;24.78;99403.39;221632;1270;25427;-70
2022/05/19 14:03:00;;;;;;;3.40;2.40;;;;;;;25.51;24.61;99406.47;224932;1270;22609;-70
2022/05/19 14:08:09;;;;;;;3.40;2.00;;;;;;;25.44;24.96;99399.97;221950;1270;25485;-70
2022/05/19 14:13:34;;;;;;;1.50;1.40;;;;;;;25.50;25.50;99398.16;222053;1271;22556;-70
2022/05/19 14:18:43;;;;;;;4.00;2.00;;;;;;;25.64;25.20;99392.20;221349;1270;22597;-71
2022/05/19 14:23:48;;;;;;;3.30;1.50;;;;;;;25.56;25.35;99379.95;221462;1271;24024;-70
2022/05/19 14:28:53;;;;;;;1.40;1.30;;;;;;;25.73;25.19;99370.96;221485;1270;25365;-71
2022/05/19 14:34:10;;;;;;;3.90;1.80;;;;;;;25.81;24.04;99363.52;221284;1270;22645;-70
2022/05/19 14:39:20;;;;;;;1.50;1.40;;;;;;;25.71;23.87;99359.04;221484;1270;25401;-70
2022/05/19 14:44:40;;;;;;;2.00;1.30;;;;;;;25.73;23.51;99356.55;221164;1270;25313;-71
2022/05/19 14:50:29;;;;;;;2.10;1.50;;;;;;;25.80;23.19;99348.61;221210;1270;22700;-70
2022/05/19 14:55:44;;;;;;;2.70;1.50;;;;;;;25.75;22.52;99345.83;221398;1271;22595;-71
2022/05/19 15:00:48;;;;;;;2.70;1.20;;;;;;;25.71;22.94;99336.07;222025;1270;25245;-73
2022/05/19 15:05:52;;;;;;;2.40;1.70;;;;;;;25.77;22.93;99330.80;221237;1270;25364;-71
2022/05/19 15:10:55;;;;;;;4.30;2.50;;;;;;;25.75;22.45;99326.55;221093;1271;23443;-70
2022/05/19 15:16:00;;;;;;;1.80;1.00;;;;;;;25.70;22.79;99325.78;221510;1270;22703;-70
2022/05/19 15:21:02;;;;;;;1.70;1.40;;;;;;;25.61;22.01;99317.63;221363;1270;22740;-70
2022/05/19 15:26:06;;;;;;;2.20;1.20;;;;;;;25.48;22.19;99318.13;221265;1270;25350;-70
2022/05/19 15:31:17;;;;;;;1.00;0.90;;;;;;;25.36;22.40;99315.65;221433;1270;23042;-70
2022/05/19 15:36:26;;;;;;;1.40;1.20;;;;;;;25.37;22.53;99308.05;221420;1270;25134;-70
2022/05/19 15:41:31;;;;;;;1.70;1.30;;;;;;;25.37;21.95;99294.98;221174;1270;23177;-70
2022/05/19 15:46:34;;;;;;;5.00;1.30;;;;;;;25.31;21.89;99293.71;221118;1270;24330;-72
2022/05/19 15:51:36;;;;;;;4.40;3.20;;;;;;;25.18;22.03;99286.75;221423;1270;24267;-71
2022/05/19 15:56:48;;;;;;;2.50;1.10;;;;;;;25.02;22.07;99281.00;223897;1270;22556;-71
2022/05/19 16:02:23;;;;;;;2.90;1.30;;;;;;;24.87;22.25;99274.10;221592;1270;22516;-69
2022/05/19 16:07:27;;;;;;;2.10;1.50;;;;;;;24.76;22.71;99269.02;222377;1270;25376;-70
2022/05/19 16:12:36;;;;;;;2.60;1.30;;;;;;;24.68;23.10;99266.02;220066;1270;22535;-70
2022/05/19 16:17:41;;;;;;;2.30;1.20;;;;;;;24.60;22.60;99264.27;221626;1270;22557;-71
2022/05/19 16:22:58;;;;;;;1.70;1.20;;;;;;;24.53;22.90;99267.98;221475;1270;22531;-70
2022/05/19 16:28:02;;;;;;;2.80;0.90;;;;;;;24.47;23.53;99267.13;222197;1270;22691;-71
2022/05/19 16:33:05;;;;;;;1.50;1.30;;;;;;;24.44;23.75;99267.23;222985;1270;22552;-71
2022/05/19 16:38:18;;;;;;;2.00;1.30;;;;;;;24.36;24.31;99269.24;221177;1271;22953;-69
2022/05/19 16:43:21;;;;;;;1.50;1.40;;;;;;;24.29;24.70;99270.08;221179;1272;22691;-71
2022/05/19 16:48:24;;;;;;;1.50;1.20;;;;;;;24.30;25.07;99264.38;221146;1271;22555;-70
2022/05/19 16:57:40;;;;;;;2.60;1.70;;;;;;;24.20;25.01;99267.91;222531;1271;24378;-70
2022/05/19 16:58:54;;;;;;;1.60;1.30;;;;;;;24.14;25.29;99261.79;221392;1270;25625;-71
2022/05/19 17:03:56;;;;;;;1.40;1.30;;;;;;;24.00;25.80;99257.14;221300;1270;25462;-70
2022/05/19 17:08:58;;;;;;;2.90;1.60;;;;;;;23.83;25.89;99259.82;221330;1271;25477;-70
2022/05/19 17:14:06;;;;;;;1.80;1.50;;;;;;;23.62;26.01;99261.09;221306;1271;23276;-70
2022/05/19 17:19:09;;;;;;;2.00;1.80;;;;;;;23.46;26.79;99257.61;221340;1271;22565;-68
2022/05/19 17:24:14;;;;;;;3.70;3.00;;;;;;;23.29;27.13;99252.22;220842;1271;22609;-67
2022/05/19 17:29:17;;;;;;;1.70;1.60;;;;;;;23.20;27.04;99253.30;222847;1271;22605;-68
2022/05/19 17:34:20;;;;;;;3.30;1.70;;;;;;;23.09;27.06;99252.54;221162;1271;24290;-67
2022/05/19 17:39:29;;;;;;;4.10;1.20;;;;;;;22.79;27.51;99250.91;219494;1271;22625;-67
2022/05/19 17:44:32;;;;;;;2.30;1.90;;;;;;;22.45;27.93;99243.17;219540;1271;24236;-68
2022/05/19 17:49:54;;;;;;;1.50;1.30;;;;;;;22.11;28.37;99239.51;219678;1271;22546;-69
2022/05/19 17:54:57;;;;;;;3.70;1.90;;;;;;;21.80;28.87;99233.41;219505;1271;22556;-67
2022/05/19 18:00:00;;;;;;;4.10;2.70;;;;;;;21.54;29.32;99228.46;220310;1270;22930;-68
2022/05/19 18:05:17;;;;;;;2.50;1.60;;;;;;;21.28;29.81;99232.14;219951;1271;22601;-68
2022/05/19 18:10:27;;;;;;;;;;;;;;;21.02;30.18;99227.48;220755;1270;24329;-68
2022/05/19 18:21:05;;;;;;;3.30;1.70;;;;;;;20.52;31.05;99224.05;219885;1271;22715;-69
2022/05/19 18:26:16;;;;;;;3.90;2.10;;;;;;;20.27;31.55;99220.17;220373;1271;22751;-67
2022/05/19 18:31:20;;;;;;;2.80;1.50;;;;;;;20.03;31.80;99221.39;220153;1271;24227;-68
2022/05/19 18:36:23;;;;;;;3.30;1.60;;;;;;;19.77;32.22;99217.83;219567;1271;22557;-68
2022/05/19 18:46:59;;;;;;;1.80;1.50;;;;;;;19.29;32.81;99228.43;219353;1271;22543;-68
2022/05/19 18:52:04;;;;;;;2.00;1.50;;;;;;;19.11;33.09;99234.23;219526;1272;22528;-68
2022/05/19 18:57:06;;;;;;;1.70;1.50;;;;;;;18.95;33.23;99236.55;219545;1271;22575;-68
2022/05/19 19:02:12;;;;;;;3.90;1.70;;;;;;;18.79;33.44;99249.37;219606;1271;26370;-68
2022/05/19 19:07:16;;;;;;;5.60;1.10;;;;;;;18.62;33.64;99249.52;220546;1269;25258;-71
2022/05/19 19:12:20;;;;;;;2.80;1.40;;;;;;;18.48;33.71;99244.57;221431;1272;24255;-68
2022/05/19 19:17:23;;;;;;;3.10;1.40;;;;;;;18.35;33.78;99245.77;219304;1271;25256;-68
2022/05/19 19:22:33;;;;;;;3.20;1.30;;;;;;;18.22;33.83;99251.08;220328;1270;26375;-68
2022/05/19 19:27:36;;;;;;;2.00;1.20;;;;;;;18.07;33.84;99254.91;219430;1271;25470;-67
2022/05/19 19:32:42;;;;;;;3.80;1.40;;;;;;;17.96;34.07;99251.17;220500;1270;22538;-69
2022/05/19 19:37:47;;;;;;;1.20;1.00;;;;;;;17.92;34.17;99244.21;222027;1270;25307;-68
2022/05/19 19:42:50;;;;;;;1.90;1.10;;;;;;;17.91;34.23;99248.58;219873;1270;25386;-67
2022/05/19 19:47:53;;;;;;;4.70;1.30;;;;;;;17.87;34.36;99247.38;221037;1270;22717;-68
2022/05/19 19:52:58;;;;;;;2.90;1.40;;;;;;;17.81;34.55;99242.69;219476;1270;22554;-68
2022/05/19 19:58:01;;;;;;;2.90;1.60;;;;;;;17.73;34.71;99251.74;220691;1270;25375;-69
2022/05/19 20:03:05;;;;;;;1.60;1.20;;;;;;;17.63;34.96;99253.50;219960;1270;24204;-69
2022/05/19 20:08:09;;;;;;;3.90;1.50;;;;;;;17.48;35.12;99247.58;220177;1270;22543;-67
2022/05/19 20:13:12;;;;;;;1.20;1.10;;;;;;;17.31;35.47;99253.70;219644;1270;22543;-68
2022/05/19 20:18:25;;;;;;;3.10;1.40;;;;;;;17.10;35.75;99258.16;220250;1270;22534;-67
2022/05/19 20:23:34;;;;;;;2.60;1.60;;;;;;;16.88;36.15;99255.38;219566;1271;25309;-67
2022/05/19 20:28:39;;;;;;;4.60;1.90;;;;;;;16.68;36.60;99252.64;220311;1271;22564;-66
2022/05/19 20:33:57;;;;;;;2.50;1.70;;;;;;;16.50;37.10;99256.13;220761;1270;22567;-69
2022/05/19 20:39:05;;;;;;;3.10;1.80;;;;;;;16.33;37.45;99251.14;219458;1270;22495;-68
2022/05/19 20:44:07;;;;;;;3.20;2.00;;;;;;;16.20;37.61;99239.83;219564;1270;22566;-67
2022/05/19 20:49:23;;;;;;;2.80;1.60;;;;;;;16.13;37.79;99233.72;219519;1270;23006;-68
2022/05/19 20:54:32;;;;;;;3.00;1.80;;;;;;;16.05;38.06;99232.76;219914;1270;24801;-69
2022/05/19 20:59:39;;;;;;;3.80;2.10;;;;;;;15.96;38.14;99227.16;219879;1270;23200;-69
2022/05/19 21:04:43;;;;;;;3.60;2.00;;;;;;;15.87;38.30;99225.83;219353;1270;25328;-69
2022/05/19 21:09:49;;;;;;;4.50;2.30;;;;;;;15.77;38.58;99225.08;220191;1270;22561;-69
2022/05/19 21:14:52;;;;;;;3.30;1.90;;;;;;;15.69;38.78;99214.95;219753;1270;22610;-68
2022/05/19 21:20:16;;;;;;;8.10;2.50;;;;;;;15.61;39.09;99208.92;220125;1270;22713;-67
2022/05/19 21:30:45;;;;;;;3.50;2.40;;;;;;;15.38;39.45;99218.45;220377;1269;25253;-69
2022/05/19 21:35:49;;;;;;;4.10;2.10;;;;;;;15.22;39.50;99220.69;219481;1270;25311;-68
2022/05/19 21:40:53;;;;;;;4.30;2.30;;;;;;;15.07;39.81;99219.05;220060;1270;24189;-68
2022/05/19 21:45:57;;;;;;;4.10;2.30;;;;;;;14.99;40.17;99214.82;220851;1270;25452;-67
2022/05/19 21:56:41;;;;;;;3.00;2.20;;;;;;;14.96;40.70;99208.05;219668;1270;22591;-68
2022/05/19 22:01:44;;;;;;;2.70;2.10;;;;;;;14.92;40.86;99204.26;219662;1270;23841;-68
2022/05/19 22:12:10;;;;;;;2.60;2.00;;;;;;;14.74;41.49;99189.52;219427;1270;22581;-67
2022/05/19 22:17:12;;;;;;;3.00;1.90;;;;;;;14.71;41.60;99187.55;219382;1270;25331;-68
2022/05/19 22:22:14;;;;;;;2.30;1.80;;;;;;;14.71;41.75;99190.46;219284;1270;24110;-67
2022/05/19 22:27:19;;;;;;;3.10;2.20;;;;;;;14.71;41.79;99196.05;219694;1270;25479;-68
2022/05/19 22:32:22;;;;;;;2.90;1.90;;;;;;;14.74;41.67;99188.83;220070;1270;23858;-67
2022/05/19 22:37:24;;;;;;;2.20;1.60;;;;;;;14.76;41.65;99177.40;219820;1270;25143;-68
2022/05/19 22:42:26;;;;;;;2.50;1.60;;;;;;;14.77;41.64;99173.27;219439;1270;22668;-68
2022/05/19 22:47:40;;;;;;;3.70;1.30;;;;;;;14.78;41.53;99168.71;219894;1270;22614;-68
2022/05/19 22:52:48;;;;;;;1.90;1.30;;;;;;;14.81;41.59;99166.27;219663;1270;25404;-68
2022/05/19 22:57:51;;;;;;;2.70;1.30;;;;;;;14.88;41.38;99161.78;219518;1270;22543;-68
2022/05/19 23:02:55;;;;;;;1.80;1.40;;;;;;;14.96;41.16;99157.29;220067;1270;22679;-68
2022/05/19 23:08:11;;;;;;;1.40;1.00;;;;;;;15.03;40.98;99151.11;220149;1269;25318;-68
2022/05/19 23:13:21;;;;;;;1.10;0.90;;;;;;;15.10;40.87;99146.99;220085;1270;24119;-68
2022/05/19 23:18:27;;;;;;;2.00;1.50;;;;;;;15.13;40.76;99140.02;219615;1269;25264;-68
2022/05/19 23:23:29;;;;;;;1.30;1.10;;;;;;;15.14;40.62;99133.91;220006;1270;25261;-67
2022/05/19 23:28:32;;;;;;;3.20;1.10;;;;;;;15.15;40.50;99129.44;219448;1270;22921;-67
2022/05/19 23:33:43;;;;;;;1.50;1.10;;;;;;;15.18;40.41;99133.35;219935;1270;25320;-68
2022/05/19 23:38:45;;;;;;;1.50;0.80;;;;;;;15.24;40.31;99126.47;220610;1270;25262;-67
2022/05/19 23:43:48;;;;;;;3.80;1.10;;;;;;;15.26;40.11;99131.27;221216;1270;24232;-67
2022/05/19 23:49:11;;;;;;;1.90;0.90;;;;;;;15.26;40.14;99139.20;219558;1270;22537;-68
2022/05/19 23:54:13;;;;;;;1.20;1.10;;;;;;;15.20;40.22;99138.86;219552;1270;22537;-69
2022/05/19 23:59:15;;;;;;;1.70;0.90;;;;;;;15.09;40.37;99131.60;220358;1270;25250;-67
